createdAt,value
2018-12-19T00:00:11.092Z,1.27
2018-12-19T00:02:37.848Z,1.76
2018-12-19T00:05:04.613Z,1.91
2018-12-19T00:07:31.356Z,1.99
2018-12-19T00:09:58.132Z,1.39
2018-12-19T00:12:24.911Z,1.71
2018-12-19T00:14:51.680Z,1.26
2018-12-19T00:17:18.448Z,1.44
2018-12-19T00:19:45.218Z,1.79
2018-12-19T00:22:11.972Z,1.89
2018-12-19T00:24:38.781Z,1.94
2018-12-19T00:27:05.541Z,1.26
2018-12-19T00:29:32.308Z,1.76
2018-12-19T00:31:59.056Z,1.82
2018-12-19T00:34:25.795Z,2.07
2018-12-19T00:36:52.577Z,1.58
2018-12-19T00:39:19.331Z,1.99
2018-12-19T00:41:46.101Z,1.61
2018-12-19T00:44:12.851Z,1.83
2018-12-19T00:46:39.612Z,1.54
2018-12-19T00:49:06.357Z,1.87
2018-12-19T00:51:33.157Z,1.46
2018-12-19T00:53:59.896Z,1.91
2018-12-19T00:56:26.669Z,1.63
2018-12-19T00:58:53.416Z,2.06
2018-12-19T01:01:20.178Z,2.03
2018-12-19T01:03:46.934Z,1.43
2018-12-19T01:06:13.724Z,2.04
2018-12-19T01:08:40.461Z,2.00
2018-12-19T01:11:07.220Z,2.09
2018-12-19T01:13:33.980Z,1.53
2018-12-19T01:16:00.760Z,1.79
2018-12-19T01:18:27.515Z,1.38
2018-12-19T01:20:54.292Z,1.98
2018-12-19T01:23:21.032Z,2.23
2018-12-19T01:25:47.817Z,2.21
2018-12-19T01:28:14.576Z,2.20
2018-12-19T01:30:41.382Z,1.59
2018-12-19T01:33:08.128Z,2.02
2018-12-19T01:35:34.905Z,1.45
2018-12-19T01:38:01.649Z,1.93
2018-12-19T01:40:28.430Z,1.55
2018-12-19T01:42:55.181Z,2.16
2018-12-19T01:45:21.956Z,1.49
2018-12-19T01:47:48.704Z,1.97
2018-12-19T01:50:15.489Z,1.64
2018-12-19T01:52:42.244Z,2.17
2018-12-19T01:55:09.015Z,1.94
2018-12-19T01:57:35.758Z,2.16
2018-12-19T02:00:02.533Z,1.68
2018-12-19T02:02:29.296Z,1.53
2018-12-19T02:04:56.052Z,2.07
2018-12-19T02:07:22.812Z,1.54
2018-12-19T02:09:49.564Z,2.09
2018-12-19T02:12:16.355Z,1.73
2018-12-19T02:14:43.116Z,1.20
2018-12-19T02:17:09.884Z,1.78
2018-12-19T02:19:36.619Z,1.74
2018-12-19T02:22:03.396Z,1.57
2018-12-19T02:24:30.152Z,2.04
2018-12-19T02:26:56.927Z,1.64
2018-12-19T02:29:23.687Z,2.19
2018-12-19T02:31:50.474Z,1.64
2018-12-19T02:34:17.216Z,2.25
2018-12-19T02:36:43.993Z,1.83
2018-12-19T02:39:10.744Z,2.41
2018-12-19T02:41:37.508Z,2.21
2018-12-19T02:44:04.256Z,2.32
2018-12-19T02:46:31.029Z,2.32
2018-12-19T02:48:57.798Z,1.90
2018-12-19T02:51:24.571Z,1.82
2018-12-19T02:53:51.319Z,1.95
2018-12-19T02:56:18.103Z,1.90
2018-12-19T02:58:44.849Z,2.43
2018-12-19T03:01:11.628Z,1.88
2018-12-19T03:03:38.372Z,2.35
2018-12-19T03:06:05.154Z,1.94
2018-12-19T03:08:32.045Z,2.42
2018-12-19T03:10:58.820Z,1.94
2018-12-19T03:13:25.582Z,2.20
2018-12-19T03:15:52.337Z,1.83
2018-12-19T03:18:19.176Z,1.72
2018-12-19T03:20:45.947Z,1.74
2018-12-19T03:23:12.692Z,1.74
2018-12-19T03:25:39.468Z,1.56
2018-12-19T03:28:06.221Z,1.76
2018-12-19T03:30:32.978Z,1.46
2018-12-19T03:32:59.721Z,1.61
2018-12-19T03:35:26.482Z,1.53
2018-12-19T03:37:53.237Z,2.02
2018-12-19T03:40:19.998Z,2.18
2018-12-19T03:42:46.808Z,2.25
2018-12-19T03:45:13.542Z,1.76
2018-12-19T03:47:40.305Z,1.54
2018-12-19T03:50:07.062Z,1.57
2018-12-19T03:52:33.857Z,1.66
2018-12-19T03:55:00.602Z,2.30
2018-12-19T03:57:27.356Z,1.93
2018-12-19T03:59:54.092Z,1.66
2018-12-19T04:02:20.859Z,2.26
2018-12-19T04:04:47.604Z,1.76
2018-12-19T04:07:14.400Z,1.65
2018-12-19T04:09:41.161Z,1.68
2018-12-19T04:12:07.935Z,1.62
2018-12-19T04:14:34.716Z,2.12
2018-12-19T04:17:01.469Z,2.27
2018-12-19T04:19:28.204Z,1.80
2018-12-19T04:21:54.992Z,1.84
2018-12-19T04:24:22.316Z,1.68
2018-12-19T04:26:49.088Z,1.86
2018-12-19T04:29:15.858Z,1.70
2018-12-19T04:31:42.709Z,1.72
2018-12-19T04:34:09.464Z,1.74
2018-12-19T04:36:36.206Z,1.75
2018-12-19T04:39:03.908Z,1.74
2018-12-19T04:41:30.650Z,1.90
2018-12-19T04:43:57.451Z,2.01
2018-12-19T04:46:24.202Z,1.99
2018-12-19T04:48:50.961Z,2.05
2018-12-19T04:51:17.785Z,2.24
2018-12-19T04:53:44.564Z,2.15
2018-12-19T04:56:11.329Z,2.14
2018-12-19T04:58:38.117Z,1.99
2018-12-19T05:01:04.876Z,2.63
2018-12-19T05:03:31.689Z,2.33
2018-12-19T05:05:58.424Z,2.25
2018-12-19T05:08:25.213Z,2.11
2018-12-19T05:10:51.965Z,2.19
2018-12-19T05:13:18.833Z,2.30
2018-12-19T05:15:45.599Z,2.19
2018-12-19T05:18:12.373Z,2.56
2018-12-19T05:20:39.189Z,2.38
2018-12-19T05:23:06.004Z,2.19
2018-12-19T05:25:32.754Z,2.14
2018-12-19T05:27:59.488Z,2.43
2018-12-19T05:30:26.256Z,2.30
2018-12-19T05:32:53.064Z,2.18
2018-12-19T05:35:20.072Z,2.28
2018-12-19T05:37:46.845Z,2.44
2018-12-19T05:40:18.819Z,2.19
2018-12-19T05:42:40.377Z,2.55
2018-12-19T05:45:07.593Z,2.30
2018-12-19T05:47:34.363Z,2.63
2018-12-19T05:50:01.146Z,2.25
2018-12-19T05:52:27.925Z,2.57
2018-12-19T05:54:54.715Z,2.48
2018-12-19T05:57:21.512Z,2.36
2018-12-19T05:59:48.282Z,2.43
2018-12-19T06:02:15.561Z,2.42
2018-12-19T06:04:42.308Z,2.40
2018-12-19T06:07:09.120Z,2.47
2018-12-19T06:09:35.892Z,2.74
2018-12-19T06:12:02.685Z,2.57
2018-12-19T06:14:29.464Z,2.52
2018-12-19T06:16:56.227Z,2.49
2018-12-19T06:19:22.982Z,2.63
2018-12-19T06:21:49.796Z,2.42
2018-12-19T06:24:16.536Z,2.63
2018-12-19T06:26:43.308Z,2.52
2018-12-19T06:29:10.044Z,2.68
2018-12-19T06:31:36.859Z,2.78
2018-12-19T06:34:03.601Z,2.76
2018-12-19T06:36:30.380Z,2.82
2018-12-19T06:38:57.140Z,2.94
2018-12-19T06:41:23.916Z,3.02
2018-12-19T06:43:50.669Z,3.09
2018-12-19T06:46:17.453Z,3.15
2018-12-19T06:48:44.202Z,2.79
2018-12-19T06:51:10.964Z,2.76
2018-12-19T06:53:37.757Z,2.69
2018-12-19T06:56:04.505Z,2.76
2018-12-19T06:58:31.272Z,2.63
2018-12-19T07:00:58.025Z,2.60
2018-12-19T07:03:24.807Z,2.76
2018-12-19T07:05:51.548Z,2.75
2018-12-19T07:08:18.484Z,2.70
2018-12-19T07:10:45.256Z,2.63
2018-12-19T07:13:12.032Z,2.71
2018-12-19T07:15:38.780Z,2.70
2018-12-19T07:18:05.548Z,2.65
2018-12-19T07:20:32.292Z,2.70
2018-12-19T07:22:59.068Z,2.61
2018-12-19T07:25:25.825Z,2.65
2018-12-19T07:27:52.600Z,2.62
2018-12-19T07:30:19.342Z,2.79
2018-12-19T07:32:46.092Z,2.73
2018-12-19T07:35:12.854Z,2.70
2018-12-19T07:37:39.624Z,2.71
2018-12-19T07:40:06.384Z,2.99
2018-12-19T07:42:33.154Z,3.23
2018-12-19T07:44:59.895Z,3.29
2018-12-19T07:47:26.668Z,3.45
2018-12-19T07:49:53.428Z,3.35
2018-12-19T07:52:20.208Z,3.10
2018-12-19T07:54:46.969Z,3.06
2018-12-19T07:57:13.776Z,3.02
2018-12-19T07:59:40.525Z,3.29
2018-12-19T08:02:07.348Z,3.04
2018-12-19T08:04:34.098Z,3.04
2018-12-19T08:07:00.869Z,2.96
2018-12-19T08:09:27.612Z,3.15
2018-12-19T08:11:54.400Z,3.22
2018-12-19T08:14:21.173Z,3.18
2018-12-19T08:16:47.948Z,3.44
2018-12-19T08:19:14.708Z,3.77
2018-12-19T08:21:41.480Z,3.15
2018-12-19T08:24:08.236Z,3.26
2018-12-19T08:26:35.019Z,3.87
2018-12-19T08:29:01.789Z,3.24
2018-12-19T08:31:28.548Z,3.22
2018-12-19T08:33:55.316Z,3.38
2018-12-19T08:36:22.066Z,3.56
2018-12-19T08:38:48.834Z,3.41
2018-12-19T08:41:15.592Z,3.49
2018-12-19T08:43:42.378Z,3.52
2018-12-19T08:46:14.531Z,3.38
2018-12-19T08:48:35.887Z,3.63
2018-12-19T08:51:02.631Z,3.55
2018-12-19T08:53:29.420Z,3.51
2018-12-19T08:55:56.160Z,3.72
2018-12-19T08:58:22.941Z,3.61
2018-12-19T09:00:51.493Z,3.56
2018-12-19T09:03:18.265Z,3.37
2018-12-19T09:05:45.016Z,3.72
2018-12-19T09:08:11.780Z,3.49
2018-12-19T09:10:38.541Z,3.68
2018-12-19T09:13:05.296Z,3.79
2018-12-19T09:15:37.755Z,3.56
2018-12-19T09:18:04.516Z,3.83
2018-12-19T09:20:31.263Z,3.88
2018-12-19T09:22:58.036Z,3.83
2018-12-19T09:25:24.791Z,3.85
2018-12-19T09:27:51.569Z,3.90
2018-12-19T09:30:18.444Z,3.80
2018-12-19T09:32:45.208Z,3.88
2018-12-19T09:35:11.945Z,3.92
2018-12-19T09:37:38.705Z,3.75
2018-12-19T09:40:05.484Z,3.90
2018-12-19T09:42:32.248Z,3.73
2018-12-19T09:44:59.004Z,4.01
2018-12-19T09:47:25.800Z,3.77
2018-12-19T09:49:52.548Z,3.57
2018-12-19T09:52:19.339Z,3.50
2018-12-19T09:54:46.076Z,3.47
2018-12-19T09:57:12.844Z,3.73
2018-12-19T09:59:39.592Z,3.76
2018-12-19T10:02:06.360Z,4.39
2018-12-19T10:04:33.115Z,4.01
2018-12-19T10:06:59.848Z,3.86
2018-12-19T10:09:26.631Z,4.12
2018-12-19T10:11:53.388Z,4.00
2018-12-19T10:14:20.158Z,4.07
2018-12-19T10:16:46.912Z,4.38
2018-12-19T10:19:13.692Z,4.06
2018-12-19T10:21:40.436Z,4.15
2018-12-19T10:24:07.217Z,4.13
2018-12-19T10:26:33.972Z,4.04
2018-12-19T10:29:00.756Z,4.12
2018-12-19T10:31:27.520Z,4.24
2018-12-19T10:33:54.312Z,4.01
2018-12-19T10:36:36.370Z,4.11
2018-12-19T10:39:05.296Z,4.18
2018-12-19T10:41:32.058Z,4.12
2018-12-19T10:43:58.829Z,4.17
2018-12-19T10:46:25.587Z,4.52
2018-12-19T10:48:52.365Z,4.23
2018-12-19T10:51:19.148Z,4.01
2018-12-19T10:53:45.936Z,4.16
2018-12-19T10:56:12.688Z,4.51
2018-12-19T10:58:39.453Z,4.40
2018-12-19T11:01:06.192Z,4.42
2018-12-19T11:03:32.968Z,4.65
2018-12-19T11:05:59.765Z,5.09
2018-12-19T11:08:26.521Z,4.71
2018-12-19T11:10:53.294Z,4.75
2018-12-19T11:13:20.075Z,4.74
2018-12-19T11:15:46.832Z,4.89
2018-12-19T11:18:13.612Z,4.98
2018-12-19T11:20:40.384Z,5.04
2018-12-19T11:23:07.161Z,5.23
2018-12-19T11:25:33.928Z,5.33
2018-12-19T11:28:00.708Z,5.57
2018-12-19T11:30:27.456Z,5.44
2018-12-19T11:32:54.228Z,5.53
2018-12-19T11:35:20.987Z,5.57
2018-12-19T11:37:47.867Z,5.77
2018-12-19T11:40:14.616Z,5.64
2018-12-19T11:42:41.392Z,5.71
2018-12-19T11:45:08.149Z,5.63
2018-12-19T11:47:34.936Z,5.79
2018-12-19T11:50:01.686Z,5.93
2018-12-19T11:52:28.450Z,5.91
2018-12-19T11:54:55.225Z,5.62
2018-12-19T11:57:21.977Z,5.49
2018-12-19T11:59:48.736Z,5.73
2018-12-19T12:02:15.505Z,5.82
2018-12-19T12:04:42.269Z,5.79
2018-12-19T12:07:09.036Z,5.86
2018-12-19T12:09:35.824Z,6.35
2018-12-19T12:12:02.602Z,6.17
2018-12-19T12:14:29.368Z,5.91
2018-12-19T12:16:56.126Z,5.86
2018-12-19T12:19:22.884Z,5.92
2018-12-19T12:21:49.628Z,5.97
2018-12-19T12:24:16.396Z,5.97
2018-12-19T12:26:43.164Z,5.90
2018-12-19T12:29:09.931Z,5.91
2018-12-19T12:31:36.720Z,5.90
2018-12-19T12:34:03.501Z,6.39
2018-12-19T12:36:30.255Z,6.10
2018-12-19T12:38:57.014Z,6.02
2018-12-19T12:41:23.760Z,5.97
2018-12-19T12:43:50.532Z,5.99
2018-12-19T12:46:17.302Z,5.83
2018-12-19T12:48:44.076Z,5.68
2018-12-19T12:51:10.841Z,5.80
2018-12-19T12:53:37.609Z,5.50
2018-12-19T12:56:04.364Z,6.15
2018-12-19T12:58:31.139Z,5.64
2018-12-19T13:00:57.895Z,5.69
2018-12-19T13:03:24.656Z,5.58
2018-12-19T13:05:51.408Z,6.07
2018-12-19T13:08:18.220Z,5.85
2018-12-19T13:10:45.020Z,5.83
2018-12-19T13:13:11.924Z,6.07
2018-12-19T13:15:40.924Z,6.09
2018-12-19T13:18:07.725Z,5.66
2018-12-19T13:20:34.469Z,5.58
2018-12-19T13:23:01.274Z,5.73
2018-12-19T13:25:28.009Z,5.69
2018-12-19T13:27:54.771Z,6.18
2018-12-19T13:30:21.552Z,5.77
2018-12-19T13:32:48.335Z,5.74
2018-12-19T13:35:15.248Z,5.80
2018-12-19T13:37:42.017Z,5.78
2018-12-19T13:40:08.784Z,5.77
2018-12-19T13:42:35.628Z,5.83
2018-12-19T13:45:02.569Z,5.82
2018-12-19T13:47:29.440Z,5.71
2018-12-19T13:49:56.221Z,5.79
2018-12-19T13:52:22.994Z,6.38
2018-12-19T13:54:49.773Z,6.02
2018-12-19T13:57:16.535Z,5.98
2018-12-19T13:59:43.329Z,5.92
2018-12-19T14:02:10.086Z,6.09
2018-12-19T14:04:36.896Z,6.05
2018-12-19T14:07:03.682Z,5.98
2018-12-19T14:09:30.460Z,5.87
2018-12-19T14:11:57.416Z,5.90
2018-12-19T14:14:24.290Z,5.91
2018-12-19T14:16:51.104Z,6.07
2018-12-19T14:19:17.964Z,5.95
2018-12-19T14:21:44.788Z,5.90
2018-12-19T14:24:11.561Z,5.98
2018-12-19T14:26:38.390Z,5.92
2018-12-19T14:29:05.232Z,6.04
2018-12-19T14:31:31.981Z,6.07
2018-12-19T14:33:58.752Z,6.11
2018-12-19T14:36:25.524Z,5.94
2018-12-19T14:38:52.390Z,6.09
2018-12-19T14:41:19.144Z,5.98
2018-12-19T14:43:45.908Z,5.84
2018-12-19T14:46:12.668Z,5.93
2018-12-19T14:48:39.444Z,5.91
2018-12-19T14:51:06.196Z,5.88
2018-12-19T14:53:32.985Z,5.82
2018-12-19T14:55:59.741Z,6.33
2018-12-19T14:58:26.509Z,5.83
2018-12-19T15:00:53.272Z,5.71
2018-12-19T15:03:20.096Z,5.77
2018-12-19T15:05:46.866Z,6.45
2018-12-19T15:08:13.688Z,6.51
2018-12-19T15:10:40.455Z,6.55
2018-12-19T15:13:07.199Z,6.15
2018-12-19T15:15:33.979Z,5.90
2018-12-19T15:18:00.730Z,5.95
2018-12-19T15:20:27.497Z,5.81
2018-12-19T15:22:54.297Z,5.69
2018-12-19T15:25:21.097Z,5.61
2018-12-19T15:27:47.868Z,5.62
2018-12-19T15:30:14.652Z,5.77
2018-12-19T15:32:41.400Z,5.91
2018-12-19T15:35:08.241Z,5.81
2018-12-19T15:37:35.014Z,6.28
2018-12-19T15:40:01.768Z,5.78
2018-12-19T15:42:32.469Z,5.65
2018-12-19T15:44:55.303Z,5.58
2018-12-19T15:47:22.068Z,5.59
2018-12-19T15:49:48.896Z,5.73
2018-12-19T15:52:15.645Z,5.61
2018-12-19T15:54:42.435Z,5.59
2018-12-19T15:57:09.305Z,5.58
2018-12-19T15:59:36.099Z,5.52
2018-12-19T16:02:02.854Z,5.86
2018-12-19T16:04:29.748Z,5.51
2018-12-19T16:06:56.513Z,5.57
2018-12-19T16:09:23.320Z,5.85
2018-12-19T16:11:50.092Z,5.87
2018-12-19T16:14:16.889Z,5.73
2018-12-19T16:16:43.739Z,5.43
2018-12-19T16:19:10.581Z,5.41
2018-12-19T16:21:37.336Z,5.53
2018-12-19T16:24:04.113Z,5.38
2018-12-19T16:26:30.893Z,5.73
2018-12-19T16:28:57.675Z,5.49
2018-12-19T16:31:24.467Z,5.32
2018-12-19T16:33:51.245Z,5.35
2018-12-19T16:36:18.044Z,5.31
2018-12-19T16:38:44.796Z,5.29
2018-12-19T16:41:11.629Z,5.24
2018-12-19T16:43:38.658Z,5.23
2018-12-19T16:46:06.240Z,5.26
2018-12-19T16:48:32.998Z,5.16
2018-12-19T16:50:59.776Z,5.13
2018-12-19T16:53:26.541Z,5.15
2018-12-19T16:55:53.329Z,5.07
2018-12-19T16:58:20.108Z,5.04
2018-12-19T17:00:46.952Z,5.59
2018-12-19T17:03:13.708Z,5.12
2018-12-19T17:05:40.529Z,5.01
2018-12-19T17:08:07.311Z,4.95
2018-12-19T17:10:34.080Z,4.86
2018-12-19T17:13:00.864Z,4.88
2018-12-19T17:15:27.624Z,4.87
2018-12-19T17:17:54.408Z,4.93
2018-12-19T17:20:21.193Z,4.91
2018-12-19T17:22:47.973Z,4.87
2018-12-19T17:25:14.776Z,4.88
2018-12-19T17:27:41.544Z,5.51
2018-12-19T17:30:08.308Z,5.16
2018-12-19T17:32:35.146Z,5.13
2018-12-19T17:35:01.997Z,5.13
2018-12-19T17:37:28.764Z,5.18
2018-12-19T17:39:55.531Z,5.44
2018-12-19T17:42:22.377Z,5.07
2018-12-19T17:44:49.153Z,5.02
2018-12-19T17:47:15.944Z,4.96
2018-12-19T17:49:42.821Z,4.98
2018-12-19T17:52:09.616Z,4.95
2018-12-19T17:54:36.394Z,5.00
2018-12-19T17:57:03.144Z,5.26
2018-12-19T17:59:29.917Z,5.10
2018-12-19T18:01:56.684Z,5.08
2018-12-19T18:04:23.600Z,5.18
2018-12-19T18:06:50.359Z,4.93
2018-12-19T18:09:17.152Z,4.85
2018-12-19T18:11:43.946Z,4.81
2018-12-19T18:14:10.734Z,4.85
2018-12-19T18:16:37.502Z,4.84
2018-12-19T18:19:04.765Z,4.95
2018-12-19T18:21:31.051Z,4.96
2018-12-19T18:23:57.817Z,4.85
2018-12-19T18:26:25.122Z,4.95
2018-12-19T18:28:51.952Z,5.34
2018-12-19T18:31:18.752Z,4.99
2018-12-19T18:33:45.572Z,4.83
2018-12-19T18:36:12.368Z,4.88
2018-12-19T18:38:39.179Z,4.92
2018-12-19T18:41:05.976Z,4.92
2018-12-19T18:43:32.736Z,5.15
2018-12-19T18:45:59.500Z,4.99
2018-12-19T18:48:26.252Z,4.90
2018-12-19T18:50:53.109Z,5.19
2018-12-19T18:53:19.877Z,4.87
2018-12-19T18:55:46.697Z,4.84
2018-12-19T18:58:13.436Z,4.80
2018-12-19T19:00:40.379Z,4.81
2018-12-19T19:03:07.120Z,4.69
2018-12-19T19:05:33.944Z,5.35
2018-12-19T19:08:00.653Z,5.00
2018-12-19T19:10:27.414Z,4.76
2018-12-19T19:12:54.176Z,4.67
2018-12-19T19:15:21.021Z,4.69
2018-12-19T19:17:47.793Z,4.61
2018-12-19T19:20:14.604Z,4.62
2018-12-19T19:22:41.377Z,4.58
2018-12-19T19:25:08.439Z,4.64
2018-12-19T19:27:35.181Z,4.50
2018-12-19T19:30:01.981Z,4.60
2018-12-19T19:32:29.477Z,4.84
2018-12-19T19:34:56.552Z,4.70
2018-12-19T19:37:23.296Z,4.65
2018-12-19T19:39:50.081Z,4.62
2018-12-19T19:42:16.853Z,4.61
2018-12-19T19:44:43.659Z,4.47
2018-12-19T19:47:10.455Z,4.57
2018-12-19T19:49:37.204Z,4.42
2018-12-19T19:52:03.977Z,4.34
2018-12-19T19:54:30.761Z,4.21
2018-12-19T19:56:57.520Z,4.23
2018-12-19T19:59:24.285Z,4.10
2018-12-19T20:01:51.054Z,4.16
2018-12-19T20:04:17.839Z,4.24
2018-12-19T20:06:44.684Z,4.33
2018-12-19T20:09:11.793Z,4.35
2018-12-19T20:11:38.568Z,4.41
2018-12-19T20:14:05.384Z,4.48
2018-12-19T20:16:32.192Z,5.21
2018-12-19T20:18:58.969Z,4.79
2018-12-19T20:21:25.740Z,4.56
2018-12-19T20:23:52.497Z,4.67
2018-12-19T20:26:19.271Z,4.42
2018-12-19T20:28:46.037Z,4.37
2018-12-19T20:31:12.820Z,4.37
2018-12-19T20:33:39.601Z,4.31
2018-12-19T20:36:06.373Z,4.24
2018-12-19T20:38:33.128Z,4.24
2018-12-19T20:41:00.644Z,4.26
2018-12-19T20:43:27.444Z,4.20
2018-12-19T20:45:54.229Z,4.28
2018-12-19T20:48:21.037Z,4.34
2018-12-19T20:50:47.809Z,4.31
2018-12-19T20:53:14.611Z,4.11
2018-12-19T20:55:41.366Z,4.10
2018-12-19T20:58:08.117Z,4.65
2018-12-19T21:00:35.771Z,4.11
2018-12-19T21:03:02.547Z,4.01
2018-12-19T21:05:29.401Z,3.75
2018-12-19T21:07:56.152Z,4.00
2018-12-19T21:10:22.917Z,4.55
2018-12-19T21:12:49.681Z,3.98
2018-12-19T21:15:16.456Z,4.18
2018-12-19T21:17:48.961Z,3.99
2018-12-19T21:20:15.748Z,3.99
2018-12-19T21:22:42.513Z,3.88
2018-12-19T21:25:09.269Z,3.92
2018-12-19T21:27:36.064Z,4.43
2018-12-19T21:30:02.864Z,4.12
2018-12-19T21:32:30.713Z,3.94
2018-12-19T21:34:57.456Z,4.02
2018-12-19T21:37:24.247Z,4.07
2018-12-19T21:39:50.972Z,4.18
2018-12-19T21:42:17.759Z,4.23
2018-12-19T21:44:44.509Z,4.27
2018-12-19T21:47:11.328Z,4.40
2018-12-19T21:49:38.500Z,4.54
2018-12-19T21:52:05.326Z,4.52
2018-12-19T21:54:32.027Z,4.64
2018-12-19T21:56:58.868Z,4.61
2018-12-19T21:59:25.634Z,4.52
2018-12-19T22:01:52.383Z,4.62
2018-12-19T22:04:19.125Z,4.73
2018-12-19T22:06:45.899Z,4.84
2018-12-19T22:09:12.644Z,4.92
2018-12-19T22:11:39.413Z,4.95
2018-12-19T22:14:06.253Z,4.92
2018-12-19T22:16:38.855Z,5.05
2018-12-19T22:19:05.642Z,5.18
2018-12-19T22:21:32.397Z,5.11
2018-12-19T22:23:59.161Z,4.88
2018-12-19T22:26:25.932Z,4.92
2018-12-19T22:28:52.788Z,4.84
2018-12-19T22:31:19.551Z,4.96
2018-12-19T22:33:46.287Z,5.04
2018-12-19T22:36:13.048Z,5.08
2018-12-19T22:38:39.843Z,5.15
2018-12-19T22:41:06.563Z,5.24
2018-12-19T22:43:33.368Z,5.19
2018-12-19T22:46:00.164Z,5.20
2018-12-19T22:48:26.913Z,5.32
2018-12-19T22:50:53.739Z,5.32
2018-12-19T22:53:20.428Z,5.34
2018-12-19T22:55:47.289Z,5.38
2018-12-19T22:58:14.059Z,5.27
2018-12-19T23:00:46.624Z,5.11
2018-12-19T23:03:13.368Z,5.08
2018-12-19T23:05:45.906Z,5.13
2018-12-19T23:08:12.894Z,5.15
2018-12-19T23:10:39.557Z,5.15
2018-12-19T23:13:06.243Z,5.28
2018-12-19T23:15:33.013Z,5.32
2018-12-19T23:18:05.534Z,5.31
2018-12-19T23:20:32.341Z,5.31
2018-12-19T23:22:59.084Z,5.11
2018-12-19T23:25:25.870Z,4.99
2018-12-19T23:27:52.695Z,4.96
2018-12-19T23:30:19.418Z,4.90
2018-12-19T23:32:46.214Z,4.96
2018-12-19T23:35:13.025Z,4.94
2018-12-19T23:37:39.726Z,5.11
2018-12-19T23:40:06.586Z,5.46
2018-12-19T23:42:33.268Z,5.32
2018-12-19T23:45:00.067Z,5.64
2018-12-19T23:47:26.802Z,5.53
2018-12-19T23:49:53.580Z,5.55
2018-12-19T23:52:20.315Z,5.61
2018-12-19T23:54:47.086Z,5.47
2018-12-19T23:57:13.976Z,5.67
2018-12-19T23:59:40.626Z,5.66
